Time;durP1;ratioP1;P1;durP2;ratioP2;P2;SDS_P1;SDS_P2;PMS_P1;PMS_P2;Temp;Humidity;BMP_temperature;BMP_pressure;BME280_temperature;BME280_humidity;BME280_pressure;Samples;Min_cycle;Max_cycle;Signal;HPM_P1;HPM_P2
2023/08/15 00:00:50;;;;;;;;;;;;;;;23.41;58.79;101198.09;5065949;28;19945;-60
2023/08/15 00:03:15;;;;;;;;;;;;;;;23.41;58.91;101200.81;5065765;28;19921;-60
2023/08/15 00:05:40;;;;;;;;;;;;;;;23.40;58.69;101182.00;5065254;28;19917;-60
2023/08/15 00:08:06;;;;;;;;;;;;;;;23.40;58.74;101182.00;5066258;28;20437;-61
2023/08/15 00:10:31;;;;;;;;;;;;;;;23.40;58.56;101180.13;5065431;28;20468;-60
2023/08/15 00:12:57;;;;;;;;;;;;;;;23.39;58.67;101175.72;5067194;28;19916;-60
2023/08/15 00:15:22;;;;;;;;;;;;;;;23.40;58.53;101171.16;5069584;28;19917;-60
2023/08/15 00:17:47;;;;;;;;;;;;;;;23.39;58.58;101178.44;5066004;28;20011;-60
2023/08/15 00:20:12;;;;;;;;;;;;;;;23.40;58.36;101179.28;5065160;28;19940;-60
2023/08/15 00:22:37;;;;;;;;;;;;;;;23.40;58.46;101173.84;5069418;28;19924;-60
2023/08/15 00:25:03;;;;;;;;;;;;;;;23.39;58.31;101172.19;5065883;28;20023;-61
2023/08/15 00:27:28;;;;;;;;;;;;;;;23.39;58.63;101177.59;5066163;28;19967;-60
2023/08/15 00:29:53;;;;;;;;;;;;;;;23.39;58.33;101174.91;5067344;28;19927;-60
2023/08/15 00:32:18;;;;;;;;;;;;;;;23.39;58.56;101178.44;5065445;28;19931;-59
2023/08/15 00:34:44;;;;;;;;;;;;;;;23.38;58.32;101170.50;5064790;28;19928;-60
2023/08/15 00:37:09;;;;;;;;;;;;;;;23.37;58.46;101164.25;5065729;28;19917;-60
2023/08/15 00:39:34;;;;;;;;;;;;;;;23.38;58.36;101165.09;5065854;28;19975;-59
2023/08/15 00:41:59;;;;;;;;;;;;;;;23.37;58.39;101164.25;5065211;28;19972;-58
2023/08/15 00:44:24;;;;;;;;;;;;;;;23.37;58.41;101166.13;5065580;28;19955;-59
2023/08/15 00:46:50;;;;;;;;;;;;;;;23.37;58.52;101160.69;5065843;28;20011;-60
2023/08/15 00:49:15;;;;;;;;;;;;;;;23.36;58.22;101159.84;5065136;28;19980;-53
2023/08/15 00:51:40;;;;;;;;;;;;;;;23.37;58.57;101152.56;5067440;28;19916;-60
2023/08/15 00:54:05;;;;;;;;;;;;;;;23.37;58.51;101157.97;5064298;28;19966;-61
2023/08/15 00:56:31;;;;;;;;;;;;;;;23.35;58.13;101150.00;5064910;28;19921;-60
2023/08/15 00:58:56;;;;;;;;;;;;;;;23.36;58.30;101142.72;5064744;28;19916;-60
2023/08/15 01:01:21;;;;;;;;;;;;;;;23.37;58.44;101149.84;5064922;28;19935;-60
2023/08/15 01:03:47;;;;;;;;;;;;;;;23.36;58.33;101150.84;5099560;28;19928;-61
2023/08/15 01:06:12;;;;;;;;;;;;;;;23.36;58.31;101148.13;5065712;28;19917;-60
2023/08/15 01:08:37;;;;;;;;;;;;;;;23.35;58.40;101147.31;5066082;28;19988;-60
2023/08/15 01:11:03;;;;;;;;;;;;;;;23.35;58.30;101147.31;5065160;28;19923;-61
2023/08/15 01:13:33;;;;;;;;;;;;;;;23.35;58.31;101144.59;5097355;28;20305;-61
2023/08/15 01:15:58;;;;;;;;;;;;;;;23.35;58.30;101144.59;5096929;28;19920;-61
2023/08/15 01:18:26;;;;;;;;;;;;;;;23.35;58.21;101141.03;5062304;28;19988;-60
2023/08/15 01:20:51;;;;;;;;;;;;;;;23.35;58.23;101143.75;5064549;28;19920;-60
2023/08/15 01:23:16;;;;;;;;;;;;;;;23.34;58.42;101142.91;5095396;28;19955;-60
2023/08/15 01:25:42;;;;;;;;;;;;;;;23.34;58.18;101151.06;5095252;28;19917;-60
2023/08/15 01:28:11;;;;;;;;;;;;;;;23.34;58.42;101142.09;5064741;28;19916;-61
2023/08/15 01:30:36;;;;;;;;;;;;;;;23.33;58.11;101143.97;5064539;28;20404;-60
2023/08/15 01:33:21;;;;;;;;;;;;;;;23.33;58.17;101134.97;5094490;28;19916;-60
2023/08/15 01:35:46;;;;;;;;;;;;;;;23.33;58.38;101140.41;5095482;28;20416;-61
2023/08/15 01:38:44;;;;;;;;;;;;;;;23.33;58.43;101134.97;5064244;28;19913;-60
2023/08/15 01:41:11;;;;;;;;;;;;;;;23.32;58.19;101134.16;5051574;28;19917;-60
2023/08/15 01:43:37;;;;;;;;;;;;;;;23.33;58.20;101129.56;5063560;28;19927;-61
2023/08/15 01:46:03;;;;;;;;;;;;;;;23.32;58.41;101117.88;5096900;28;20043;-60
2023/08/15 01:48:28;;;;;;;;;;;;;;;23.32;58.29;101123.28;5063156;28;19912;-59
2023/08/15 01:50:53;;;;;;;;;;;;;;;23.31;57.98;101109.91;5062433;28;19917;-60
2023/08/15 01:53:19;;;;;;;;;;;;;;;23.32;58.29;101111.56;5064294;28;19917;-60
2023/08/15 01:55:44;;;;;;;;;;;;;;;23.32;58.11;101114.28;5063235;28;19916;-60
2023/08/15 01:58:10;;;;;;;;;;;;;;;23.32;58.19;101108.84;5064317;28;19928;-61
2023/08/15 02:00:35;;;;;;;;;;;;;;;23.32;58.39;101109.72;5063683;28;19921;-60
2023/08/15 02:03:00;;;;;;;;;;;;;;;23.31;58.18;101128.88;5065411;28;19917;-60
2023/08/15 02:05:25;;;;;;;;;;;;;;;23.32;58.11;101123.28;5066022;28;19939;-60
2023/08/15 02:07:50;;;;;;;;;;;;;;;23.31;58.37;101123.47;5063314;28;19928;-60
2023/08/15 02:10:16;;;;;;;;;;;;;;;23.32;58.25;101122.41;5063176;28;19920;-60
2023/08/15 02:12:41;;;;;;;;;;;;;;;23.30;58.39;101125.34;5063884;28;19916;-60
2023/08/15 02:15:06;;;;;;;;;;;;;;;23.31;58.34;101135.16;5063924;28;19928;-60
2023/08/15 02:17:32;;;;;;;;;;;;;;;23.32;58.29;101141.41;5063700;28;19959;-60
2023/08/15 02:19:57;;;;;;;;;;;;;;;23.30;58.27;101144.34;5064900;28;20459;-60
2023/08/15 02:22:22;;;;;;;;;;;;;;;23.30;58.24;101160.59;5079369;28;19924;-60
2023/08/15 02:24:47;;;;;;;;;;;;;;;23.30;58.24;101155.19;5065733;28;19942;-60
2023/08/15 02:27:13;;;;;;;;;;;;;;;23.30;58.06;101151.63;5063043;28;19917;-57
2023/08/15 02:29:38;;;;;;;;;;;;;;;23.30;58.22;101151.63;5066008;28;19920;-60
2023/08/15 02:32:03;;;;;;;;;;;;;;;23.30;58.26;101166.03;5063419;28;19917;-60
2023/08/15 02:34:28;;;;;;;;;;;;;;;23.31;58.00;101169.59;5063137;28;19916;-57
2023/08/15 02:36:53;;;;;;;;;;;;;;;23.29;58.21;101186.06;5063420;28;19983;-60
2023/08/15 02:39:19;;;;;;;;;;;;;;;23.30;58.13;101182.31;5065282;28;19925;-61
2023/08/15 02:41:44;;;;;;;;;;;;;;;23.28;58.23;101168.13;5063282;28;19917;-61
2023/08/15 02:44:09;;;;;;;;;;;;;;;23.30;58.34;101170.63;5063791;28;20004;-60
2023/08/15 02:46:34;;;;;;;;;;;;;;;23.28;58.03;101178.09;5063185;28;19939;-61
2023/08/15 02:49:00;;;;;;;;;;;;;;;23.28;58.29;101181.69;5063575;28;19925;-61
2023/08/15 02:51:25;;;;;;;;;;;;;;;23.28;57.98;101178.97;5062911;28;19927;-61
2023/08/15 02:53:50;;;;;;;;;;;;;;;23.29;58.37;101188.78;5063474;28;19916;-57
2023/08/15 02:56:15;;;;;;;;;;;;;;;23.28;58.28;101202.50;5065639;28;19952;-60
2023/08/15 02:58:41;;;;;;;;;;;;;;;23.28;58.23;101197.09;5063994;28;19956;-61
2023/08/15 03:01:06;;;;;;;;;;;;;;;23.28;58.21;101197.97;5063389;28;19917;-59
2023/08/15 03:03:31;;;;;;;;;;;;;;;23.27;58.14;101184.56;5063439;28;19917;-61
2023/08/15 03:06:00;;;;;;;;;;;;;;;23.27;58.29;101176.44;5062096;28;19917;-56
2023/08/15 03:08:25;;;;;;;;;;;;;;;23.27;58.24;101165.56;5063405;28;19917;-61
2023/08/15 03:10:51;;;;;;;;;;;;;;;23.26;57.92;101175.59;5063056;28;19921;-61
2023/08/15 03:13:16;;;;;;;;;;;;;;;23.27;58.11;101168.28;5062603;28;19949;-61
2023/08/15 03:15:48;;;;;;;;;;;;;;;23.26;58.10;101178.31;5063854;28;19917;-60
2023/08/15 03:18:13;;;;;;;;;;;;;;;23.26;58.08;101186.44;5091797;28;19916;-61
2023/08/15 03:20:38;;;;;;;;;;;;;;;23.26;58.18;101182.88;5061732;28;20399;-61
2023/08/15 03:23:04;;;;;;;;;;;;;;;23.26;58.18;101172.03;5066045;28;19921;-61
2023/08/15 03:25:29;;;;;;;;;;;;;;;23.26;58.00;101175.59;5066490;28;19916;-61
2023/08/15 03:27:54;;;;;;;;;;;;;;;23.26;58.25;101166.63;5067301;28;19916;-61
2023/08/15 03:30:19;;;;;;;;;;;;;;;23.26;58.00;101162.03;5066818;28;19967;-61
2023/08/15 03:32:44;;;;;;;;;;;;;;;23.25;58.16;101171.19;5067548;28;20185;-60
2023/08/15 03:35:10;;;;;;;;;;;;;;;23.26;58.03;101174.75;5066584;28;19917;-61
2023/08/15 03:37:35;;;;;;;;;;;;;;;23.26;57.99;101174.75;5066348;28;19912;-61
2023/08/15 03:40:01;;;;;;;;;;;;;;;23.26;58.15;101172.03;5066890;28;19927;-61
2023/08/15 03:42:26;;;;;;;;;;;;;;;23.25;58.03;101173.06;5066090;28;19921;-61
2023/08/15 03:44:51;;;;;;;;;;;;;;;23.25;58.05;101179.34;5066639;28;19917;-59
2023/08/15 03:47:16;;;;;;;;;;;;;;;23.25;58.13;101178.50;5066399;28;19987;-61
2023/08/15 03:49:41;;;;;;;;;;;;;;;23.26;58.08;101185.59;5065771;28;19927;-60
2023/08/15 03:52:07;;;;;;;;;;;;;;;23.24;57.90;101185.81;5066591;28;19952;-61
2023/08/15 03:54:32;;;;;;;;;;;;;;;23.25;58.03;101183.94;5066460;28;19916;-60
2023/08/15 03:56:57;;;;;;;;;;;;;;;23.25;58.21;101190.19;5066013;28;19920;-61
2023/08/15 03:59:22;;;;;;;;;;;;;;;23.26;57.97;101185.59;5066450;28;19925;-61
2023/08/15 04:01:48;;;;;;;;;;;;;;;23.25;58.00;101192.91;5064907;28;19923;-61
2023/08/15 04:04:13;;;;;;;;;;;;;;;23.25;58.10;101186.63;5066252;28;19952;-61
2023/08/15 04:06:39;;;;;;;;;;;;;;;23.24;58.09;101196.66;5065273;28;19917;-61
2023/08/15 04:09:04;;;;;;;;;;;;;;;23.24;58.23;101201.25;5065035;28;19924;-61
2023/08/15 04:11:29;;;;;;;;;;;;;;;23.24;58.22;101203.97;5065669;28;19924;-60
2023/08/15 04:13:54;;;;;;;;;;;;;;;23.24;58.39;101201.25;5065551;28;19923;-61
2023/08/15 04:16:19;;;;;;;;;;;;;;;23.23;58.46;101194.94;5067516;28;20011;-60
2023/08/15 04:18:45;;;;;;;;;;;;;;;23.23;58.32;101196.81;5067049;28;20438;-61
2023/08/15 04:21:11;;;;;;;;;;;;;;;23.22;58.54;101198.69;5065573;28;20557;-61
2023/08/15 04:23:38;;;;;;;;;;;;;;;23.23;58.44;101205.81;5065801;28;20139;-60
2023/08/15 04:26:03;;;;;;;;;;;;;;;23.24;58.70;101214.81;5065864;28;19932;-62
2023/08/15 04:28:28;;;;;;;;;;;;;;;23.23;58.51;101215.81;5066008;28;20286;-60
2023/08/15 04:30:53;;;;;;;;;;;;;;;23.24;58.51;101214.81;5066589;28;20369;-61
2023/08/15 04:33:19;;;;;;;;;;;;;;;23.22;58.76;101217.69;5065171;28;19924;-62
2023/08/15 04:35:44;;;;;;;;;;;;;;;23.23;58.52;101221.25;5065945;28;19917;-61
2023/08/15 04:38:10;;;;;;;;;;;;;;;23.22;58.75;101214.97;5066142;28;19921;-61
2023/08/15 04:40:43;;;;;;;;;;;;;;;23.22;58.59;101231.25;5067527;28;19967;-60
2023/08/15 04:43:09;;;;;;;;;;;;;;;23.22;58.56;101233.13;5064850;28;19920;-61
2023/08/15 04:45:40;;;;;;;;;;;;;;;23.22;58.80;101239.41;5064007;28;19916;-61
2023/08/15 04:48:06;;;;;;;;;;;;;;;23.22;58.64;101239.41;5065701;28;19945;-60
2023/08/15 04:50:31;;;;;;;;;;;;;;;23.22;58.82;101238.56;5064919;28;19916;-61
2023/08/15 04:52:56;;;;;;;;;;;;;;;23.22;58.62;101235.84;5065618;28;19913;-60
2023/08/15 04:55:21;;;;;;;;;;;;;;;23.22;58.76;101244.81;5065316;28;20425;-60
2023/08/15 04:57:46;;;;;;;;;;;;;;;23.22;58.89;101241.28;5065495;28;20588;-60
2023/08/15 05:00:12;;;;;;;;;;;;;;;23.22;59.05;101242.09;5064975;28;19913;-61
2023/08/15 05:02:38;;;;;;;;;;;;;;;23.23;59.12;101248.38;5065217;28;19917;-61
2023/08/15 05:05:05;;;;;;;;;;;;;;;23.22;59.06;101268.41;5063985;28;19912;-57
2023/08/15 05:07:31;;;;;;;;;;;;;;;23.22;59.04;101258.38;5053726;28;19957;-60
2023/08/15 05:09:56;;;;;;;;;;;;;;;23.21;59.19;101267.56;5062618;28;19932;-61
2023/08/15 05:12:21;;;;;;;;;;;;;;;23.22;59.05;101285.50;5064446;28;19920;-57
2023/08/15 05:14:47;;;;;;;;;;;;;;;23.22;58.96;101288.22;5064887;28;19917;-61
2023/08/15 05:17:12;;;;;;;;;;;;;;;23.22;59.08;101287.38;5065316;28;19912;-60
2023/08/15 05:19:38;;;;;;;;;;;;;;;23.20;58.91;101288.44;5065025;28;19955;-60
2023/08/15 05:22:03;;;;;;;;;;;;;;;23.21;58.82;101294.69;5064185;28;19928;-60
2023/08/15 05:24:28;;;;;;;;;;;;;;;23.21;59.03;101305.53;5065016;28;19942;-61
2023/08/15 05:26:53;;;;;;;;;;;;;;;23.21;59.14;101310.97;5064982;28;19923;-60
2023/08/15 05:29:18;;;;;;;;;;;;;;;23.22;58.96;101320.78;5064718;28;19924;-59
2023/08/15 05:31:44;;;;;;;;;;;;;;;23.22;59.06;101315.34;5097142;28;19927;-61
2023/08/15 05:34:09;;;;;;;;;;;;;;;23.21;58.97;101316.38;5064241;28;19940;-61
2023/08/15 05:36:34;;;;;;;;;;;;;;;23.23;58.95;101325.16;5063634;28;19916;-60
2023/08/15 05:39:04;;;;;;;;;;;;;;;23.21;58.85;101327.25;5064307;28;19913;-61
2023/08/15 05:41:29;;;;;;;;;;;;;;;23.22;58.86;101331.63;5062656;28;19919;-61
2023/08/15 05:43:54;;;;;;;;;;;;;;;23.23;58.82;101332.47;5064963;28;19957;-60
2023/08/15 05:46:19;;;;;;;;;;;;;;;23.23;58.95;101340.59;5064594;28;19960;-60
2023/08/15 05:48:44;;;;;;;;;;;;;;;23.23;58.90;101335.19;5063991;28;20389;-61
2023/08/15 05:51:10;;;;;;;;;;;;;;;23.23;58.92;101337.88;5063606;28;19916;-60
2023/08/15 05:53:35;;;;;;;;;;;;;;;23.23;58.71;101346.88;5064337;28;19979;-60
2023/08/15 05:56:00;;;;;;;;;;;;;;;23.23;58.93;101356.88;5064026;28;20056;-61
2023/08/15 05:58:25;;;;;;;;;;;;;;;23.22;58.75;101352.50;5063923;28;19923;-60
2023/08/15 06:00:52;;;;;;;;;;;;;;;23.23;58.86;101356.88;5063903;28;19916;-58
2023/08/15 06:03:19;;;;;;;;;;;;;;;23.22;58.75;101363.34;5063883;28;19935;-61
2023/08/15 06:05:44;;;;;;;;;;;;;;;23.22;58.82;101361.47;5063108;28;19995;-61
2023/08/15 06:08:09;;;;;;;;;;;;;;;23.23;58.73;101368.56;5063448;28;19966;-57
2023/08/15 06:10:34;;;;;;;;;;;;;;;23.23;58.83;101362.31;5063794;28;19971;-61
2023/08/15 06:13:00;;;;;;;;;;;;;;;23.23;58.65;101359.59;5062929;28;19913;-61
2023/08/15 06:15:25;;;;;;;;;;;;;;;23.23;58.69;101354.16;5063239;28;19938;-60
2023/08/15 06:17:50;;;;;;;;;;;;;;;23.23;58.65;101362.31;5064147;28;19917;-61
2023/08/15 06:20:15;;;;;;;;;;;;;;;23.22;58.49;101356.03;5063654;28;19943;-61
2023/08/15 06:22:40;;;;;;;;;;;;;;;23.22;58.73;101361.47;5066337;28;20366;-59
2023/08/15 06:25:07;;;;;;;;;;;;;;;23.23;58.64;101370.44;5067339;28;19920;-60
2023/08/15 06:27:32;;;;;;;;;;;;;;;23.23;58.86;101376.72;5063817;28;19922;-61
2023/08/15 06:29:57;;;;;;;;;;;;;;;23.24;58.76;101380.28;5063846;28;20122;-61
2023/08/15 06:32:26;;;;;;;;;;;;;;;23.23;58.59;101375.88;5064043;28;19913;-61
2023/08/15 06:34:51;;;;;;;;;;;;;;;23.23;58.76;101379.44;5061408;28;19974;-55
2023/08/15 06:37:16;;;;;;;;;;;;;;;23.23;58.48;101384.00;5063253;28;19920;-57
2023/08/15 06:39:42;;;;;;;;;;;;;;;23.23;58.44;101382.13;5063763;28;19921;-61
2023/08/15 06:42:07;;;;;;;;;;;;;;;23.23;58.50;101387.56;5062613;28;19943;-61
2023/08/15 06:44:32;;;;;;;;;;;;;;;23.23;58.54;101389.44;5064533;28;19954;-56
2023/08/15 06:46:58;;;;;;;;;;;;;;;23.23;58.61;101392.16;5064429;28;19917;-61
2023/08/15 06:49:23;;;;;;;;;;;;;;;23.24;58.49;101391.16;5064160;28;19921;-61
2023/08/15 06:51:48;;;;;;;;;;;;;;;23.23;58.42;101392.16;5062975;28;19963;-60
2023/08/15 06:54:13;;;;;;;;;;;;;;;23.23;58.41;101393.00;5061647;28;19917;-61
2023/08/15 06:56:38;;;;;;;;;;;;;;;23.24;58.46;101404.72;5065597;28;19916;-62
2023/08/15 06:59:04;;;;;;;;;;;;;;;23.22;58.30;101398.63;5065699;28;19921;-57
2023/08/15 07:01:29;;;;;;;;;;;;;;;23.22;58.32;101401.31;5066760;28;19984;-58
2023/08/15 07:03:54;;;;;;;;;;;;;;;23.22;58.64;101410.31;5066980;28;19916;-60
2023/08/15 07:06:20;;;;;;;;;;;;;;;23.22;58.40;101401.31;5067264;28;19916;-61
2023/08/15 07:08:46;;;;;;;;;;;;;;;23.21;58.46;101405.91;5067273;28;19917;-61
2023/08/15 07:11:11;;;;;;;;;;;;;;;23.21;58.15;101400.47;5067956;28;19917;-61
2023/08/15 07:13:36;;;;;;;;;;;;;;;23.20;58.57;101413.22;5068391;28;20340;-61
2023/08/15 07:16:01;;;;;;;;;;;;;;;23.20;58.41;101404.22;5068445;28;19947;-61
2023/08/15 07:18:26;;;;;;;;;;;;;;;23.19;58.37;101403.41;5067624;28;19917;-60
2023/08/15 07:20:52;;;;;;;;;;;;;;;23.20;58.38;101412.38;5066285;28;19955;-60
2023/08/15 07:23:17;;;;;;;;;;;;;;;23.18;58.40;101412.53;5070377;28;19950;-61
2023/08/15 07:25:43;;;;;;;;;;;;;;;23.18;58.11;101407.13;5065564;28;19917;-61
2023/08/15 07:28:08;;;;;;;;;;;;;;;23.17;58.37;101413.56;5068312;28;19916;-60
2023/08/15 07:30:33;;;;;;;;;;;;;;;23.18;58.43;101417.13;5066031;28;19924;-61
2023/08/15 07:32:59;;;;;;;;;;;;;;;23.17;58.24;101412.72;5067355;28;19977;-60
2023/08/15 07:35:24;;;;;;;;;;;;;;;23.17;58.33;101419.00;5068417;28;19923;-61
2023/08/15 07:37:49;;;;;;;;;;;;;;;23.17;58.11;101423.59;5068583;28;19912;-60
2023/08/15 07:40:18;;;;;;;;;;;;;;;23.17;58.20;101418.16;5066375;28;19916;-60
2023/08/15 07:42:43;;;;;;;;;;;;;;;23.16;58.35;101417.31;5065795;28;19917;-61
2023/08/15 07:45:09;;;;;;;;;;;;;;;23.16;58.35;101417.31;5066419;28;19923;-61
2023/08/15 07:47:36;;;;;;;;;;;;;;;23.16;58.33;101417.31;5068360;28;19946;-61
2023/08/15 07:50:11;;;;;;;;;;;;;;;23.15;58.11;101423.78;5066926;28;20266;-61
2023/08/15 07:52:36;;;;;;;;;;;;;;;23.15;58.24;101418.34;5066717;28;20118;-60
2023/08/15 07:55:02;;;;;;;;;;;;;;;23.15;58.10;101431.03;5066147;28;20403;-61
2023/08/15 07:57:27;;;;;;;;;;;;;;;23.14;57.95;101427.50;5067925;28;19992;-61
2023/08/15 07:59:53;;;;;;;;;;;;;;;23.14;58.11;101429.38;5066111;28;19948;-61
2023/08/15 08:02:18;;;;;;;;;;;;;;;23.13;58.25;101433.94;5066442;28;20519;-61
2023/08/15 08:04:43;;;;;;;;;;;;;;;23.14;58.05;101437.50;5066223;28;20026;-61
2023/08/15 08:07:08;;;;;;;;;;;;;;;23.13;58.29;101441.25;5065545;28;19983;-61
2023/08/15 08:09:34;;;;;;;;;;;;;;;23.12;58.11;101448.56;5065880;28;20531;-59
2023/08/15 08:12:00;;;;;;;;;;;;;;;23.12;58.09;101451.25;5066663;28;19948;-61
2023/08/15 08:14:25;;;;;;;;;;;;;;;23.12;58.14;101450.44;5066118;28;19916;-58
2023/08/15 08:16:50;;;;;;;;;;;;;;;23.11;58.00;101457.72;5069126;28;19917;-60
2023/08/15 08:19:15;;;;;;;;;;;;;;;23.12;58.09;101458.56;5065930;28;19920;-62
2023/08/15 08:21:40;;;;;;;;;;;;;;;23.12;58.14;101459.41;5065253;28;19925;-61
2023/08/15 08:24:06;;;;;;;;;;;;;;;23.12;57.97;101447.72;5066286;28;19925;-61
2023/08/15 08:26:31;;;;;;;;;;;;;;;23.11;58.27;101446.88;5065688;28;19916;-61
2023/08/15 08:28:56;;;;;;;;;;;;;;;23.11;57.93;101454.16;5065232;28;19947;-60
2023/08/15 08:31:21;;;;;;;;;;;;;;;23.11;58.01;101468.56;5066060;28;19920;-61
2023/08/15 08:33:46;;;;;;;;;;;;;;;23.10;58.10;101466.88;5065626;28;19917;-61
2023/08/15 08:36:12;;;;;;;;;;;;;;;23.12;58.01;101466.69;5064012;28;19925;-60
2023/08/15 08:38:37;;;;;;;;;;;;;;;23.10;58.07;101466.88;5064919;28;19931;-60
2023/08/15 08:41:02;;;;;;;;;;;;;;;23.10;58.00;101477.72;5065854;28;19917;-60
2023/08/15 08:43:28;;;;;;;;;;;;;;;23.10;58.20;101477.72;5065891;28;19978;-61
2023/08/15 08:45:53;;;;;;;;;;;;;;;23.11;58.18;101479.41;5064488;28;19936;-61
2023/08/15 08:48:18;;;;;;;;;;;;;;;23.10;58.21;101477.72;5079307;28;19917;-60
2023/08/15 08:50:47;;;;;;;;;;;;;;;23.10;58.15;101477.72;5064901;28;19931;-61
2023/08/15 08:53:12;;;;;;;;;;;;;;;23.10;58.03;101476.88;5101865;28;19988;-61
2023/08/15 08:55:37;;;;;;;;;;;;;;;23.11;58.27;101484.00;5066762;28;19951;-60
2023/08/15 08:58:02;;;;;;;;;;;;;;;23.10;58.16;101480.44;5065590;28;19921;-61
2023/08/15 09:00:29;;;;;;;;;;;;;;;23.10;58.25;101476.88;5068523;28;19939;-60
2023/08/15 09:02:56;;;;;;;;;;;;;;;23.10;58.09;101485.84;5067181;28;19916;-56
2023/08/15 09:05:21;;;;;;;;;;;;;;;23.10;58.17;101485.00;5066779;28;19917;-60
2023/08/15 09:07:46;;;;;;;;;;;;;;;23.11;57.96;101481.28;5065351;28;19917;-60
2023/08/15 09:10:12;;;;;;;;;;;;;;;23.11;58.14;101481.28;5065655;28;20016;-61
2023/08/15 09:12:38;;;;;;;;;;;;;;;23.11;58.03;101478.59;5065092;28;20838;-61
2023/08/15 09:15:04;;;;;;;;;;;;;;;23.10;58.08;101477.72;5066180;28;20411;-61
2023/08/15 09:17:30;;;;;;;;;;;;;;;23.13;58.15;101484.66;5098712;28;19916;-60
2023/08/15 09:19:55;;;;;;;;;;;;;;;23.12;58.01;101483.81;5066746;28;19938;-61
2023/08/15 09:22:21;;;;;;;;;;;;;;;23.13;58.01;101480.06;5064460;28;19921;-62
2023/08/15 09:24:46;;;;;;;;;;;;;;;23.14;58.11;101484.47;5066447;28;19921;-61
2023/08/15 09:27:11;;;;;;;;;;;;;;;23.14;58.21;101480.91;5064546;28;19917;-62
2023/08/15 09:29:36;;;;;;;;;;;;;;;23.16;57.94;101489.72;5069299;28;19924;-61
2023/08/15 09:32:02;;;;;;;;;;;;;;;23.16;58.04;101490.56;5065049;28;19924;-61
2023/08/15 09:34:27;;;;;;;;;;;;;;;23.16;58.13;101490.56;5063454;28;19920;-61
2023/08/15 09:36:52;;;;;;;;;;;;;;;23.18;58.14;101495.78;5064943;28;20390;-61
2023/08/15 09:39:17;;;;;;;;;;;;;;;23.19;58.23;101492.91;5062616;28;19920;-55
2023/08/15 09:41:46;;;;;;;;;;;;;;;23.20;58.19;101499.19;5062160;28;19940;-60
2023/08/15 09:44:11;;;;;;;;;;;;;;;23.20;58.38;101500.03;5063490;28;19920;-62
2023/08/15 09:46:36;;;;;;;;;;;;;;;23.21;58.32;101498.16;5062880;28;20465;-61
2023/08/15 09:49:02;;;;;;;;;;;;;;;23.23;58.13;101506.09;5097039;28;20769;-57
2023/08/15 09:51:27;;;;;;;;;;;;;;;23.23;58.14;101503.38;5065149;28;19921;-61
2023/08/15 09:53:52;;;;;;;;;;;;;;;23.24;58.51;101503.22;5064241;28;20051;-61
2023/08/15 09:56:18;;;;;;;;;;;;;;;23.25;58.22;101507.59;5093932;28;20055;-62
2023/08/15 09:58:43;;;;;;;;;;;;;;;23.26;58.29;101505.72;5065142;28;19931;-61
2023/08/15 10:01:08;;;;;;;;;;;;;;;23.26;58.34;101506.56;5064882;28;19947;-61
2023/08/15 10:03:40;;;;;;;;;;;;;;;23.28;58.19;101517.22;5095449;28;19916;-60
2023/08/15 10:06:08;;;;;;;;;;;;;;;23.30;58.50;101516.03;5060565;28;19917;-62
2023/08/15 10:08:35;;;;;;;;;;;;;;;23.31;58.44;101525.84;5079320;28;20292;-62
2023/08/15 10:11:00;;;;;;;;;;;;;;;23.32;58.18;101524.84;5076708;28;19925;-61
2023/08/15 10:13:26;;;;;;;;;;;;;;;23.33;58.50;101537.38;5062707;28;20211;-61
2023/08/15 10:15:51;;;;;;;;;;;;;;;23.35;58.22;101537.19;5064247;28;19928;-61
2023/08/15 10:18:16;;;;;;;;;;;;;;;23.36;58.16;101530.72;5095684;28;19916;-60
2023/08/15 10:20:42;;;;;;;;;;;;;;;23.35;58.11;101538.03;5063078;28;19920;-62
2023/08/15 10:23:08;;;;;;;;;;;;;;;23.37;58.35;101533.28;5064281;28;19925;-62
2023/08/15 10:25:40;;;;;;;;;;;;;;;23.37;58.39;101538.72;5064201;28;19917;-61
2023/08/15 10:28:11;;;;;;;;;;;;;;;23.38;58.33;101537.69;5064334;28;19950;-60
2023/08/15 10:30:45;;;;;;;;;;;;;;;23.40;58.40;101546.47;5063722;28;19925;-61
2023/08/15 10:33:11;;;;;;;;;;;;;;;23.40;58.19;101546.47;5066810;28;19973;-61
2023/08/15 10:35:36;;;;;;;;;;;;;;;23.40;58.33;101551.06;5062087;28;20007;-61
2023/08/15 10:38:03;;;;;;;;;;;;;;;23.42;58.24;101557.16;5063752;28;19912;-59
2023/08/15 10:40:38;;;;;;;;;;;;;;;23.42;58.41;101558.00;5062541;28;19920;-62
2023/08/15 10:43:07;;;;;;;;;;;;;;;23.43;58.31;101556.97;5063243;28;19916;-59
2023/08/15 10:45:52;;;;;;;;;;;;;;;23.44;58.14;101555.94;5062071;28;19917;-61
2023/08/15 10:48:37;;;;;;;;;;;;;;;23.47;58.26;101568.31;5090581;28;19923;-62
2023/08/15 10:51:02;;;;;;;;;;;;;;;23.47;58.03;101562.88;5060864;28;19929;-62
2023/08/15 10:53:27;;;;;;;;;;;;;;;23.49;58.20;101560.84;5063238;28;19999;-62
2023/08/15 10:55:52;;;;;;;;;;;;;;;23.51;58.12;101555.22;5063466;28;19917;-62
2023/08/15 10:58:18;;;;;;;;;;;;;;;23.52;58.42;101554.19;5095014;28;19917;-62
2023/08/15 11:00:43;;;;;;;;;;;;;;;23.54;58.55;101566.56;5062342;28;19925;-61
2023/08/15 11:03:08;;;;;;;;;;;;;;;23.55;58.53;101554.66;5065828;28;19916;-60
2023/08/15 11:05:39;;;;;;;;;;;;;;;23.57;58.60;101570.75;5062254;28;19952;-59
2023/08/15 11:08:08;;;;;;;;;;;;;;;23.58;58.40;101564.31;5066938;28;19951;-62
2023/08/15 11:10:33;;;;;;;;;;;;;;;23.60;58.37;101560.38;5062659;28;19921;-62
2023/08/15 11:12:58;;;;;;;;;;;;;;;23.63;58.37;101561.88;5063146;28;19917;-61
2023/08/15 11:15:24;;;;;;;;;;;;;;;23.64;58.40;101564.41;5063306;28;19921;-60
2023/08/15 11:17:49;;;;;;;;;;;;;;;23.65;58.32;101557.97;5094993;28;19976;-62
2023/08/15 11:20:14;;;;;;;;;;;;;;;23.68;58.27;101556.78;5062709;28;19959;-61
2023/08/15 11:22:40;;;;;;;;;;;;;;;23.68;58.34;101554.06;5063782;28;20041;-61
2023/08/15 11:25:08;;;;;;;;;;;;;;;23.72;58.42;101557.25;5062376;28;19963;-61
2023/08/15 11:27:45;;;;;;;;;;;;;;;23.74;58.21;101555.19;5065703;28;19939;-61
2023/08/15 11:30:10;;;;;;;;;;;;;;;23.75;58.45;101552.31;5060859;28;19924;-61
2023/08/15 11:32:38;;;;;;;;;;;;;;;23.75;58.56;101565.03;5062982;28;19976;-61
2023/08/15 11:35:03;;;;;;;;;;;;;;;23.74;58.67;101561.44;5094045;28;20023;-61
2023/08/15 11:37:28;;;;;;;;;;;;;;;23.72;58.66;101563.53;5067077;28;19921;-61
2023/08/15 11:39:54;;;;;;;;;;;;;;;23.71;58.73;101569.16;5097853;28;19917;-61
2023/08/15 11:42:19;;;;;;;;;;;;;;;23.70;58.49;101568.28;5092134;28;19917;-60
2023/08/15 11:44:44;;;;;;;;;;;;;;;23.67;58.78;101582.25;5066220;28;19923;-61
2023/08/15 11:47:13;;;;;;;;;;;;;;;23.66;58.89;101581.41;5066728;28;19927;-62
2023/08/15 11:49:38;;;;;;;;;;;;;;;23.66;58.97;101591.41;5066067;28;20711;-61
2023/08/15 11:52:04;;;;;;;;;;;;;;;23.64;59.05;101590.72;5066372;28;20373;-58
2023/08/15 11:54:29;;;;;;;;;;;;;;;23.63;58.80;101589.03;5069447;28;19943;-59
2023/08/15 11:56:54;;;;;;;;;;;;;;;23.63;59.00;101597.19;5066280;28;19921;-60
2023/08/15 11:59:19;;;;;;;;;;;;;;;23.61;58.90;101591.06;5065775;28;19984;-57
2023/08/15 12:01:45;;;;;;;;;;;;;;;23.61;59.19;101582.94;5066334;28;20277;-62
2023/08/15 12:04:13;;;;;;;;;;;;;;;23.61;59.17;101593.78;5065599;28;19921;-61
2023/08/15 12:06:39;;;;;;;;;;;;;;;23.59;59.14;101602.13;5063308;28;19952;-61
2023/08/15 12:09:05;;;;;;;;;;;;;;;23.59;59.06;101598.56;5065899;28;19947;-62
2023/08/15 12:11:30;;;;;;;;;;;;;;;23.58;59.03;101594.19;5066967;28;19939;-61
2023/08/15 12:13:55;;;;;;;;;;;;;;;23.58;59.00;101596.88;5097490;28;19927;-62
2023/08/15 12:16:20;;;;;;;;;;;;;;;23.57;59.33;101597.91;5065748;28;19983;-61
2023/08/15 12:18:45;;;;;;;;;;;;;;;23.57;59.29;101592.47;5065597;28;19917;-61
2023/08/15 12:21:12;;;;;;;;;;;;;;;23.58;59.03;101599.59;5065135;28;20555;-61
2023/08/15 12:23:37;;;;;;;;;;;;;;;23.57;59.16;101595.19;5067287;28;19928;-61
2023/08/15 12:26:02;;;;;;;;;;;;;;;23.57;59.31;101593.31;5065773;28;19917;-61
2023/08/15 12:28:27;;;;;;;;;;;;;;;23.57;59.41;101597.91;5065701;28;19963;-61